createdAt,value
2023-04-25T00:01:52.534Z,7.11
2023-04-25T00:04:19.330Z,7.22
2023-04-25T00:06:46.255Z,7.26
2023-04-25T00:09:12.921Z,7.32
2023-04-25T00:11:39.581Z,7.21
2023-04-25T00:14:07.779Z,7.27
2023-04-25T00:16:35.933Z,7.16
2023-04-25T00:19:04.377Z,7.20
2023-04-25T00:21:32.595Z,7.20
2023-04-25T00:23:59.447Z,7.13
2023-04-25T00:26:26.200Z,7.18
2023-04-25T00:28:53.026Z,7.17
2023-04-25T00:31:19.777Z,7.11
2023-04-25T00:33:46.414Z,7.10
2023-04-25T00:36:13.040Z,7.15
2023-04-25T00:38:39.643Z,7.03
2023-04-25T00:41:08.463Z,7.05
2023-04-25T00:43:37.263Z,6.98
2023-04-25T00:46:04.116Z,6.94
2023-04-25T00:48:30.775Z,7.00
2023-04-25T00:50:59.732Z,7.01
2023-04-25T00:53:28.382Z,6.98
2023-04-25T00:55:55.433Z,7.03
2023-04-25T00:58:22.942Z,6.93
2023-04-25T01:00:53.093Z,6.93
2023-04-25T01:03:23.162Z,6.85
2023-04-25T01:05:51.475Z,6.90
2023-04-25T01:08:18.010Z,6.86
2023-04-25T01:10:44.620Z,6.80
2023-04-25T01:13:11.616Z,6.75
2023-04-25T01:15:38.205Z,6.75
2023-04-25T01:18:07.082Z,6.69
2023-04-25T01:20:34.748Z,6.68
2023-04-25T01:23:03.089Z,6.61
2023-04-25T01:25:31.194Z,6.52
2023-04-25T01:27:59.012Z,6.46
2023-04-25T01:30:27.901Z,6.44
2023-04-25T01:32:57.942Z,6.38
2023-04-25T01:35:25.250Z,6.38
2023-04-25T01:37:52.804Z,6.36
2023-04-25T01:40:23.332Z,6.32
2023-04-25T01:42:50.105Z,6.33
2023-04-25T01:45:16.827Z,6.31
2023-04-25T01:47:44.894Z,6.32
2023-04-25T01:50:12.443Z,6.30
2023-04-25T01:52:39.458Z,6.37
2023-04-25T01:55:07.280Z,6.35
2023-04-25T01:57:33.844Z,6.42
2023-04-25T02:00:02.897Z,6.35
2023-04-25T02:02:29.626Z,6.39
2023-04-25T02:04:57.280Z,6.37
2023-04-25T02:07:24.062Z,6.33
2023-04-25T02:09:51.017Z,6.33
2023-04-25T02:12:17.641Z,6.38
2023-04-25T02:14:44.348Z,6.42
2023-04-25T02:17:11.337Z,6.44
2023-04-25T02:19:38.172Z,6.47
2023-04-25T02:22:04.930Z,6.47
2023-04-25T02:24:32.914Z,6.48
2023-04-25T02:26:59.496Z,6.39
2023-04-25T02:29:26.131Z,6.40
2023-04-25T02:31:52.843Z,6.36
2023-04-25T02:34:19.604Z,6.35
2023-04-25T02:36:46.205Z,6.41
2023-04-25T02:39:12.907Z,6.51
2023-04-25T02:41:39.539Z,6.52
2023-04-25T02:44:06.355Z,6.50
2023-04-25T02:49:04.918Z,6.52
2023-04-25T02:51:31.580Z,6.52
2023-04-25T02:53:58.226Z,6.57
2023-04-25T02:56:27.303Z,6.64
2023-04-25T02:58:54.870Z,6.53
2023-04-25T03:01:21.887Z,6.47
2023-04-25T03:03:48.949Z,6.42
2023-04-25T03:06:17.045Z,6.34
2023-04-25T03:08:44.132Z,6.26
2023-04-25T03:11:11.561Z,6.20
2023-04-25T03:13:38.368Z,6.20
2023-04-25T03:16:05.544Z,6.25
2023-04-25T03:18:32.162Z,6.21
2023-04-25T03:20:58.960Z,6.27
2023-04-25T03:23:25.749Z,6.20
2023-04-25T03:25:52.348Z,6.14
2023-04-25T03:28:19.194Z,6.09
2023-04-25T03:30:45.868Z,6.02
2023-04-25T03:33:12.639Z,5.92
2023-04-25T03:35:39.204Z,5.83
2023-04-25T03:38:05.968Z,5.67
2023-04-25T03:40:32.709Z,5.62
2023-04-25T03:42:59.405Z,5.56
2023-04-25T03:45:26.110Z,5.53
2023-04-25T03:47:52.898Z,5.53
2023-04-25T03:50:19.577Z,5.49
2023-04-25T03:52:46.207Z,5.46
2023-04-25T03:55:12.819Z,5.43
2023-04-25T03:57:39.433Z,5.42
2023-04-25T04:00:07.721Z,5.41
2023-04-25T04:02:36.125Z,5.43
2023-04-25T04:05:04.006Z,5.49
2023-04-25T04:07:31.017Z,5.48
2023-04-25T04:09:57.634Z,5.43
2023-04-25T04:12:24.419Z,5.41
2023-04-25T04:14:51.432Z,5.46
2023-04-25T04:17:17.992Z,5.53
2023-04-25T04:19:44.649Z,5.49
2023-04-25T04:22:11.648Z,5.50
2023-04-25T04:24:38.255Z,5.50
2023-04-25T04:27:05.258Z,5.49
2023-04-25T04:29:32.191Z,5.49
2023-04-25T04:31:59.106Z,5.52
2023-04-25T04:34:26.893Z,5.59
2023-04-25T04:36:53.561Z,5.71
2023-04-25T04:39:20.273Z,5.75
2023-04-25T04:41:47.460Z,5.83
2023-04-25T04:44:15.919Z,5.90
2023-04-25T04:46:45.686Z,5.97
2023-04-25T04:49:13.484Z,6.02
2023-04-25T04:51:41.593Z,6.11
2023-04-25T04:54:08.244Z,6.23
2023-04-25T04:56:34.899Z,6.35
2023-04-25T04:59:03.000Z,6.46
2023-04-25T05:01:31.285Z,6.56
2023-04-25T05:04:02.238Z,6.62
2023-04-25T05:06:32.550Z,6.78
2023-04-25T05:09:01.034Z,6.97
2023-04-25T05:11:27.873Z,7.18
2023-04-25T05:13:55.009Z,7.19
2023-04-25T05:16:21.961Z,7.44
2023-04-25T05:18:48.990Z,7.57
2023-04-25T05:21:15.712Z,7.66
2023-04-25T05:23:42.410Z,7.91
2023-04-25T05:26:14.941Z,7.78
2023-04-25T05:28:42.948Z,7.76
2023-04-25T05:31:11.501Z,7.72
2023-04-25T05:33:38.144Z,7.79
2023-04-25T05:36:05.176Z,7.81
2023-04-25T05:38:34.107Z,7.94
2023-04-25T05:41:01.467Z,7.93
2023-04-25T05:43:28.066Z,7.63
2023-04-25T05:45:54.854Z,7.65
2023-04-25T05:48:21.749Z,7.41
2023-04-25T05:50:48.476Z,7.40
2023-04-25T05:53:15.121Z,7.79
2023-04-25T05:55:41.792Z,8.32
2023-04-25T05:58:08.475Z,8.90
2023-04-25T06:00:35.453Z,8.98
2023-04-25T06:03:02.494Z,9.16
2023-04-25T06:05:29.680Z,9.10
2023-04-25T06:07:56.625Z,8.89
2023-04-25T06:10:23.810Z,8.40
2023-04-25T06:12:50.427Z,8.78
2023-04-25T06:15:28.214Z,9.08
2023-04-25T06:17:55.993Z,9.25
2023-04-25T06:20:25.090Z,9.38
2023-04-25T06:22:52.912Z,9.11
2023-04-25T06:25:19.677Z,8.99
2023-04-25T06:27:46.429Z,8.92
2023-04-25T06:30:13.324Z,9.09
2023-04-25T06:32:40.428Z,8.59
2023-04-25T06:35:07.490Z,8.51
2023-04-25T06:37:34.096Z,8.43
2023-04-25T06:40:00.876Z,8.46
2023-04-25T06:42:27.410Z,8.10
2023-04-25T06:44:54.009Z,8.26
2023-04-25T06:47:20.838Z,8.26
2023-04-25T06:49:47.591Z,8.14
2023-04-25T06:52:14.306Z,8.10
2023-04-25T06:54:40.990Z,7.84
2023-04-25T06:57:07.715Z,7.95
2023-04-25T06:59:34.401Z,7.58
2023-04-25T07:02:01.101Z,7.62
2023-04-25T07:04:27.970Z,7.73
2023-04-25T07:06:55.945Z,7.58
2023-04-25T07:09:23.167Z,7.63
2023-04-25T07:11:49.824Z,7.73
2023-04-25T07:14:16.484Z,7.77
2023-04-25T07:16:43.460Z,7.59
2023-04-25T07:19:10.151Z,7.52
2023-04-25T07:21:37.521Z,7.50
2023-04-25T07:24:04.461Z,7.47
2023-04-25T07:26:31.229Z,7.59
2023-04-25T07:28:57.947Z,7.58
2023-04-25T07:31:24.729Z,7.47
2023-04-25T07:33:51.600Z,7.47
2023-04-25T07:36:18.350Z,7.54
2023-04-25T07:38:45.050Z,7.59
2023-04-25T07:41:11.781Z,7.56
2023-04-25T07:43:38.537Z,7.64
2023-04-25T07:46:05.415Z,7.67
2023-04-25T07:48:32.192Z,7.62
2023-04-25T07:50:59.194Z,7.54
2023-04-25T07:53:25.867Z,7.44
2023-04-25T07:55:52.637Z,7.32
2023-04-25T07:58:22.912Z,7.51
2023-04-25T08:00:50.142Z,7.59
2023-04-25T08:03:17.216Z,7.58
2023-04-25T08:05:44.286Z,7.75
2023-04-25T08:08:11.195Z,7.82
2023-04-25T08:10:37.816Z,7.64
2023-04-25T08:13:04.489Z,7.55
2023-04-25T08:15:31.294Z,7.45
2023-04-25T08:17:58.130Z,7.36
2023-04-25T08:20:24.761Z,7.46
2023-04-25T08:22:51.619Z,7.34
2023-04-25T08:25:18.250Z,7.31
2023-04-25T08:27:44.902Z,7.36
2023-04-25T08:30:12.077Z,7.25
2023-04-25T08:32:41.702Z,7.13
2023-04-25T08:35:08.859Z,7.02
2023-04-25T08:37:36.037Z,6.89
2023-04-25T08:40:03.992Z,6.86
2023-04-25T08:42:32.606Z,6.99
2023-04-25T08:45:02.556Z,7.02
2023-04-25T08:47:31.335Z,7.27
2023-04-25T08:50:00.906Z,7.55
2023-04-25T08:52:31.754Z,7.71
2023-04-25T08:54:58.682Z,7.98
2023-04-25T08:57:26.187Z,8.01
2023-04-25T08:59:53.890Z,8.13
2023-04-25T09:02:21.998Z,8.30
2023-04-25T09:04:49.855Z,8.48
2023-04-25T09:07:19.756Z,8.53
2023-04-25T09:09:46.483Z,8.86
2023-04-25T09:12:13.396Z,8.95
2023-04-25T09:14:40.146Z,9.05
2023-04-25T09:17:08.946Z,8.75
2023-04-25T09:19:40.896Z,8.52
2023-04-25T09:22:09.050Z,8.50
2023-04-25T09:24:36.579Z,8.41
2023-04-25T09:27:11.621Z,8.42
2023-04-25T09:29:43.160Z,8.28
2023-04-25T09:32:23.915Z,8.05
2023-04-25T09:34:52.856Z,7.96
2023-04-25T09:37:29.962Z,7.79
2023-04-25T09:40:00.193Z,7.74
2023-04-25T09:42:29.964Z,7.74
2023-04-25T09:44:57.788Z,7.65
2023-04-25T09:47:26.490Z,7.69
2023-04-25T09:49:54.447Z,7.88
2023-04-25T09:52:25.657Z,7.89
2023-04-25T09:54:53.438Z,7.89
2023-04-25T09:57:22.135Z,7.61
2023-04-25T09:59:50.915Z,7.63
2023-04-25T10:02:21.513Z,7.53
2023-04-25T10:04:55.968Z,7.42
2023-04-25T10:07:27.215Z,7.29
2023-04-25T10:10:05.174Z,7.21
2023-04-25T10:12:33.803Z,7.08
2023-04-25T10:15:01.840Z,7.00
2023-04-25T10:17:29.411Z,7.07
2023-04-25T10:19:56.669Z,7.05
2023-04-25T10:22:36.434Z,7.01
2023-04-25T10:25:05.408Z,7.10
2023-04-25T10:27:32.725Z,7.07
2023-04-25T10:30:05.642Z,7.01
2023-04-25T10:32:36.138Z,6.97
2023-04-25T10:35:27.682Z,6.87
2023-04-25T10:38:03.773Z,6.78
2023-04-25T10:40:31.145Z,6.44
2023-04-25T10:43:32.820Z,6.33
2023-04-25T10:46:02.790Z,6.50
2023-04-25T10:48:31.405Z,6.34
2023-04-25T10:51:10.983Z,6.59
2023-04-25T10:53:38.275Z,6.77
2023-04-25T10:56:22.399Z,6.92
2023-04-25T10:58:52.089Z,6.97
2023-04-25T11:01:26.425Z,7.11
2023-04-25T11:03:59.788Z,7.39
2023-04-25T11:07:04.480Z,7.58
2023-04-25T11:09:37.568Z,7.82
2023-04-25T11:12:04.579Z,7.57
2023-04-25T11:14:31.451Z,8.06
2023-04-25T11:17:00.707Z,8.60
2023-04-25T11:19:28.941Z,9.07
2023-04-25T11:22:00.121Z,9.90
2023-04-25T11:24:29.316Z,10.16
2023-04-25T11:26:56.454Z,10.28
2023-04-25T11:29:24.521Z,9.97
2023-04-25T11:31:51.902Z,10.19
2023-04-25T11:34:21.769Z,10.80
2023-04-25T11:36:48.540Z,11.14
2023-04-25T11:39:16.409Z,11.14
2023-04-25T11:41:45.903Z,11.00
2023-04-25T11:44:13.207Z,10.68
2023-04-25T11:46:39.922Z,10.44
2023-04-25T11:49:06.794Z,10.03
2023-04-25T11:51:46.777Z,10.24
2023-04-25T11:54:14.775Z,10.29
2023-04-25T11:56:47.520Z,9.91
2023-04-25T11:59:15.084Z,10.02
2023-04-25T12:01:48.805Z,10.15
2023-04-25T12:04:19.844Z,10.38
2023-04-25T12:06:49.236Z,10.31
2023-04-25T12:09:22.678Z,10.53
2023-04-25T12:11:53.803Z,11.30
2023-04-25T12:14:32.511Z,11.65
2023-04-25T12:17:01.832Z,11.28
2023-04-25T12:19:35.120Z,11.73
2023-04-25T12:22:21.241Z,12.39
2023-04-25T12:24:47.965Z,12.42
2023-04-25T12:27:21.067Z,11.32
2023-04-25T12:29:57.096Z,10.35
2023-04-25T12:32:24.174Z,10.03
2023-04-25T12:34:51.156Z,9.67
2023-04-25T12:37:17.864Z,9.33
2023-04-25T12:39:44.814Z,9.05
2023-04-25T12:42:14.459Z,9.09
2023-04-25T12:44:41.757Z,9.04
2023-04-25T12:47:09.135Z,8.96
2023-04-25T12:49:36.182Z,9.17
2023-04-25T12:52:02.937Z,9.54
2023-04-25T12:54:29.903Z,10.00
2023-04-25T12:56:56.545Z,10.23
2023-04-25T12:59:23.466Z,10.81
2023-04-25T13:01:50.878Z,10.57
2023-04-25T13:04:17.759Z,10.54
2023-04-25T13:06:44.761Z,10.20
2023-04-25T13:09:13.751Z,10.33
2023-04-25T13:11:41.992Z,10.32
2023-04-25T13:14:09.214Z,10.36
2023-04-25T13:16:36.101Z,10.22
2023-04-25T13:19:02.807Z,10.05
2023-04-25T13:21:33.163Z,9.86
2023-04-25T13:24:00.041Z,10.27
2023-04-25T13:26:26.954Z,10.09
2023-04-25T13:28:53.843Z,10.09
2023-04-25T13:31:20.714Z,10.22
2023-04-25T13:33:47.603Z,10.75
2023-04-25T13:36:14.465Z,10.30
2023-04-25T13:38:43.350Z,10.59
2023-04-25T13:41:12.316Z,10.34
2023-04-25T13:43:39.452Z,10.50
2023-04-25T13:46:06.487Z,10.53
2023-04-25T13:48:33.185Z,10.36
2023-04-25T13:50:59.864Z,10.18
2023-04-25T13:53:26.638Z,10.24
2023-04-25T13:55:53.374Z,10.18
2023-04-25T13:58:21.515Z,10.19
2023-04-25T14:00:48.280Z,10.37
2023-04-25T14:03:15.158Z,10.09
2023-04-25T14:05:42.206Z,10.53
2023-04-25T14:08:11.017Z,10.85
2023-04-25T14:10:38.413Z,10.73
2023-04-25T14:13:05.874Z,10.79
2023-04-25T14:15:33.571Z,10.85
2023-04-25T14:18:01.511Z,10.55
2023-04-25T14:20:28.584Z,10.48
2023-04-25T14:22:57.133Z,10.66
2023-04-25T14:25:24.510Z,11.06
2023-04-25T14:27:52.016Z,11.34
2023-04-25T14:30:20.240Z,11.17
2023-04-25T14:32:47.475Z,10.65
2023-04-25T14:35:14.546Z,10.66
2023-04-25T14:37:41.407Z,10.40
2023-04-25T14:40:14.331Z,10.55
2023-04-25T14:42:41.414Z,10.74
2023-04-25T14:45:09.766Z,10.81
2023-04-25T14:47:38.446Z,10.49
2023-04-25T14:50:06.291Z,10.12
2023-04-25T14:52:33.078Z,10.17
2023-04-25T14:55:01.489Z,9.71
2023-04-25T14:57:28.361Z,9.78
2023-04-25T14:59:55.479Z,9.79
2023-04-25T15:02:22.830Z,10.03
2023-04-25T15:04:49.738Z,10.05
2023-04-25T15:07:18.483Z,10.01
2023-04-25T15:09:45.638Z,9.81
2023-04-25T15:12:12.931Z,9.82
2023-04-25T15:14:39.726Z,9.87
2023-04-25T15:17:06.626Z,9.58
2023-04-25T15:19:33.506Z,9.68
2023-04-25T15:22:04.054Z,9.70
2023-04-25T15:24:31.123Z,9.49
2023-04-25T15:26:57.836Z,9.51
2023-04-25T15:29:24.450Z,9.46
2023-04-25T15:31:51.440Z,9.70
2023-04-25T15:34:18.226Z,9.65
2023-04-25T15:36:45.398Z,9.87
2023-04-25T15:39:12.326Z,9.70
2023-04-25T15:41:39.088Z,9.62
2023-04-25T15:44:05.857Z,9.46
2023-04-25T15:46:32.641Z,9.61
2023-04-25T15:48:59.627Z,9.46
2023-04-25T15:51:26.977Z,9.64
2023-04-25T15:53:54.153Z,9.69
2023-04-25T15:56:21.658Z,9.70
2023-04-25T15:58:48.797Z,9.89
2023-04-25T16:01:15.931Z,9.93
2023-04-25T16:03:42.953Z,9.95
2023-04-25T16:06:09.752Z,9.88
2023-04-25T16:08:36.592Z,9.71
2023-04-25T16:11:03.726Z,9.80
2023-04-25T16:13:30.510Z,9.93
2023-04-25T16:15:57.932Z,9.84
2023-04-25T16:18:24.894Z,9.74
2023-04-25T16:20:51.811Z,9.68
2023-04-25T16:23:18.874Z,9.69
2023-04-25T16:25:46.063Z,9.79
2023-04-25T16:28:12.878Z,9.74
2023-04-25T16:30:39.630Z,9.58
2023-04-25T16:33:06.323Z,9.45
2023-04-25T16:35:33.174Z,9.42
2023-04-25T16:38:00.521Z,9.43
2023-04-25T16:40:27.699Z,9.56
2023-04-25T16:42:54.418Z,9.59
2023-04-25T16:45:21.771Z,9.46
2023-04-25T16:47:48.504Z,9.53
2023-04-25T16:50:15.466Z,9.36
2023-04-25T16:52:44.159Z,9.24
2023-04-25T16:55:11.269Z,9.29
2023-04-25T16:57:38.213Z,9.27
2023-04-25T17:00:06.555Z,9.09
2023-04-25T17:02:33.458Z,9.06
2023-04-25T17:05:00.300Z,8.82
2023-04-25T17:07:28.013Z,8.74
2023-04-25T17:09:54.634Z,8.75
2023-04-25T17:12:21.958Z,8.60
2023-04-25T17:14:50.070Z,8.50
2023-04-25T17:17:18.918Z,8.60
2023-04-25T17:19:46.070Z,8.46
2023-04-25T17:22:13.044Z,8.36
2023-04-25T17:24:40.838Z,8.44
2023-04-25T17:27:07.717Z,8.37
2023-04-25T17:29:35.310Z,8.51
2023-04-25T17:32:02.253Z,8.46
2023-04-25T17:34:29.212Z,8.57
2023-04-25T17:36:55.833Z,8.64
2023-04-25T17:39:22.607Z,8.54
2023-04-25T17:41:49.425Z,8.34
2023-04-25T17:44:16.199Z,8.24
2023-04-25T17:46:42.911Z,8.10
2023-04-25T17:49:09.646Z,7.94
2023-04-25T17:51:36.352Z,7.88
2023-04-25T17:54:03.189Z,7.85
2023-04-25T17:56:30.768Z,7.80
2023-04-25T17:58:57.468Z,7.67
2023-04-25T18:01:24.136Z,7.59
2023-04-25T18:03:51.716Z,7.64
2023-04-25T18:06:18.904Z,7.59
2023-04-25T18:08:46.129Z,7.53
2023-04-25T18:11:13.246Z,7.45
2023-04-25T18:13:40.952Z,7.45
2023-04-25T18:16:08.068Z,7.43
2023-04-25T18:18:36.429Z,7.40
2023-04-25T18:21:05.646Z,7.28
2023-04-25T18:23:34.327Z,7.28
2023-04-25T18:26:02.706Z,7.31
2023-04-25T18:28:29.648Z,7.39
2023-04-25T18:30:56.937Z,7.46
2023-04-25T18:33:23.888Z,7.54
2023-04-25T18:35:58.203Z,7.53
2023-04-25T18:38:35.510Z,7.50
2023-04-25T18:41:21.085Z,7.71
2023-04-25T18:43:54.433Z,7.62
2023-04-25T18:46:24.507Z,7.61
2023-04-25T18:48:55.260Z,7.42
2023-04-25T18:51:29.452Z,7.45
2023-04-25T18:53:57.005Z,7.52
2023-04-25T18:56:25.657Z,7.43
2023-04-25T18:58:54.400Z,7.23
2023-04-25T19:01:22.581Z,7.23
2023-04-25T19:03:57.136Z,7.30
2023-04-25T19:06:27.497Z,7.34
2023-04-25T19:08:55.666Z,7.28
2023-04-25T19:11:22.804Z,7.24
2023-04-25T19:13:50.359Z,7.29
2023-04-25T19:16:18.047Z,7.36
2023-04-25T19:18:46.632Z,7.35
2023-04-25T19:21:13.265Z,7.31
2023-04-25T19:23:40.108Z,7.34
2023-04-25T19:26:06.909Z,7.27
2023-04-25T19:28:33.901Z,7.24
2023-04-25T19:31:00.947Z,7.07
2023-04-25T19:33:27.556Z,7.10
2023-04-25T19:35:54.557Z,7.06
2023-04-25T19:38:21.574Z,6.90
2023-04-25T19:40:49.232Z,6.89
2023-04-25T19:43:15.948Z,6.85
2023-04-25T19:45:42.799Z,6.79
2023-04-25T19:48:10.438Z,6.77
2023-04-25T19:50:37.384Z,6.86
2023-04-25T19:53:04.448Z,6.88
2023-04-25T19:55:31.299Z,6.84
2023-04-25T19:57:58.071Z,6.94
2023-04-25T20:00:24.706Z,6.90
2023-04-25T20:02:51.333Z,7.03
2023-04-25T20:05:18.610Z,6.96
2023-04-25T20:07:45.437Z,6.97
2023-04-25T20:10:16.603Z,6.94
2023-04-25T20:12:44.630Z,6.73
2023-04-25T20:15:11.975Z,6.83
2023-04-25T20:17:40.418Z,6.60
2023-04-25T20:20:08.178Z,6.59
2023-04-25T20:22:38.874Z,6.52
2023-04-25T20:25:07.353Z,6.50
2023-04-25T20:27:33.934Z,6.56
2023-04-25T20:30:04.777Z,6.50
2023-04-25T20:32:34.558Z,6.37
2023-04-25T20:35:07.089Z,6.52
2023-04-25T20:37:33.758Z,6.56
2023-04-25T20:40:02.147Z,6.51
2023-04-25T20:42:28.832Z,6.53
2023-04-25T20:44:56.042Z,6.42
2023-04-25T20:47:22.810Z,6.48
2023-04-25T20:49:50.044Z,6.30
2023-04-25T20:52:17.304Z,6.36
2023-04-25T20:54:46.223Z,6.38
2023-04-25T20:57:13.169Z,6.36
2023-04-25T20:59:39.776Z,6.40
2023-04-25T21:02:06.432Z,6.34
2023-04-25T21:04:33.337Z,6.46
2023-04-25T21:07:00.916Z,6.41
2023-04-25T21:09:27.549Z,6.30
2023-04-25T21:11:54.241Z,6.40
2023-04-25T21:14:20.847Z,6.43
2023-04-25T21:16:47.557Z,6.24
2023-04-25T21:19:14.158Z,6.20
2023-04-25T21:21:40.880Z,6.16
2023-04-25T21:24:08.140Z,6.25
2023-04-25T21:26:34.661Z,6.35
2023-04-25T21:29:01.267Z,6.36
2023-04-25T21:31:28.277Z,6.44
2023-04-25T21:33:54.896Z,6.32
2023-04-25T21:36:22.373Z,6.32
2023-04-25T21:38:49.789Z,6.29
2023-04-25T21:41:16.779Z,6.21
2023-04-25T21:43:43.685Z,6.24
2023-04-25T21:46:23.062Z,6.19
2023-04-25T21:48:50.980Z,6.15
2023-04-25T21:51:18.076Z,6.12
2023-04-25T21:53:44.699Z,6.13
2023-04-25T21:56:12.139Z,6.01
2023-04-25T21:58:38.715Z,5.88
2023-04-25T22:01:05.493Z,5.97
2023-04-25T22:03:33.211Z,6.08
2023-04-25T22:06:00.155Z,5.98
2023-04-25T22:08:26.849Z,6.14
2023-04-25T22:10:55.323Z,5.99
2023-04-25T22:13:23.036Z,5.99
2023-04-25T22:15:49.711Z,5.95
2023-04-25T22:18:16.499Z,6.00
2023-04-25T22:20:44.480Z,6.08
2023-04-25T22:23:12.262Z,6.09
2023-04-25T22:25:39.024Z,6.11
2023-04-25T22:28:05.837Z,6.07
2023-04-25T22:30:32.727Z,6.06
2023-04-25T22:32:59.558Z,6.06
2023-04-25T22:35:26.322Z,6.00
2023-04-25T22:37:53.316Z,5.90
2023-04-25T22:40:20.080Z,5.87
2023-04-25T22:42:46.825Z,5.82
2023-04-25T22:45:13.818Z,5.81
2023-04-25T22:47:40.652Z,5.73
2023-04-25T22:50:12.795Z,5.70
2023-04-25T22:52:40.608Z,5.65
2023-04-25T22:55:07.621Z,5.60
2023-04-25T22:57:37.612Z,5.54
2023-04-25T23:00:10.588Z,5.54
2023-04-25T23:02:37.345Z,5.51
2023-04-25T23:05:06.995Z,5.45
2023-04-25T23:07:34.164Z,5.45
2023-04-25T23:10:00.894Z,5.52
2023-04-25T23:12:27.476Z,5.43
2023-04-25T23:14:54.031Z,5.41
2023-04-25T23:17:20.732Z,5.41
2023-04-25T23:19:48.414Z,5.49
2023-04-25T23:22:15.496Z,5.44
2023-04-25T23:24:42.138Z,5.46
2023-04-25T23:27:08.768Z,5.35
2023-04-25T23:29:36.235Z,5.40
2023-04-25T23:32:02.864Z,5.52
2023-04-25T23:34:33.054Z,5.58
2023-04-25T23:37:01.733Z,5.54
2023-04-25T23:39:28.674Z,5.43
2023-04-25T23:41:55.278Z,5.46
2023-04-25T23:44:22.296Z,5.33
2023-04-25T23:46:49.421Z,5.48
2023-04-25T23:49:16.161Z,5.43
2023-04-25T23:51:43.201Z,5.43
2023-04-25T23:54:09.808Z,5.31
2023-04-25T23:56:36.389Z,5.26
2023-04-25T23:59:04.001Z,5.27
